createdAt,value
2019-03-17T00:01:39.877Z,3.50
2019-03-17T00:04:07.821Z,3.60
2019-03-17T00:06:35.742Z,3.33
2019-03-17T00:09:05.737Z,3.33
2019-03-17T00:11:34.601Z,3.70
2019-03-17T00:14:02.885Z,3.23
2019-03-17T00:16:31.222Z,4.30
2019-03-17T00:18:59.721Z,4.07
2019-03-17T00:21:27.892Z,3.20
2019-03-17T00:23:56.290Z,4.10
2019-03-17T00:26:24.863Z,3.60
2019-03-17T00:28:52.882Z,3.70
2019-03-17T00:31:24.160Z,3.20
2019-03-17T00:33:51.508Z,3.70
2019-03-17T00:36:19.677Z,3.57
2019-03-17T00:38:48.067Z,2.97
2019-03-17T00:41:16.463Z,3.20
2019-03-17T00:43:44.444Z,2.87
2019-03-17T00:46:12.363Z,3.00
2019-03-17T00:48:40.268Z,3.60
2019-03-17T00:51:08.245Z,3.10
2019-03-17T00:53:36.141Z,3.00
2019-03-17T00:56:04.376Z,3.10
2019-03-17T00:58:32.369Z,3.97
2019-03-17T01:01:00.386Z,3.13
2019-03-17T01:03:28.487Z,3.90
2019-03-17T01:05:56.412Z,3.30
2019-03-17T01:08:24.329Z,3.20
2019-03-17T01:10:52.574Z,3.77
2019-03-17T01:13:20.665Z,3.90
2019-03-17T01:15:48.869Z,3.27
2019-03-17T01:18:16.782Z,3.17
2019-03-17T01:20:44.871Z,4.10
2019-03-17T01:23:12.802Z,3.43
2019-03-17T01:25:40.841Z,3.83
2019-03-17T01:28:11.897Z,4.50
2019-03-17T01:30:38.809Z,3.70
2019-03-17T01:33:05.796Z,3.33
2019-03-17T01:35:33.945Z,3.60
2019-03-17T01:38:02.092Z,3.87
2019-03-17T01:40:30.087Z,3.43
2019-03-17T01:42:57.238Z,3.43
2019-03-17T01:45:25.213Z,3.20
2019-03-17T01:47:53.121Z,4.00
2019-03-17T01:50:21.162Z,4.20
2019-03-17T01:52:49.430Z,3.50
2019-03-17T01:55:21.481Z,3.03
2019-03-17T01:57:49.381Z,4.50
2019-03-17T02:00:17.760Z,4.23
2019-03-17T02:02:45.950Z,4.00
2019-03-17T02:05:22.102Z,4.67
2019-03-17T02:07:43.850Z,3.60
2019-03-17T02:10:12.701Z,4.57
2019-03-17T02:12:40.745Z,4.80
2019-03-17T02:15:08.829Z,4.60
2019-03-17T02:17:36.734Z,4.10
2019-03-17T02:20:05.327Z,3.93
2019-03-17T02:22:33.227Z,4.77
2019-03-17T02:25:01.130Z,4.43
2019-03-17T02:27:29.041Z,4.20
2019-03-17T02:29:56.944Z,3.67
2019-03-17T02:32:24.857Z,4.07
2019-03-17T02:34:53.362Z,4.33
2019-03-17T02:37:21.845Z,3.50
2019-03-17T02:39:50.798Z,4.10
2019-03-17T02:42:19.290Z,4.27
2019-03-17T02:44:47.737Z,4.23
2019-03-17T02:47:15.685Z,3.77
2019-03-17T02:49:44.841Z,3.50
2019-03-17T02:52:12.993Z,4.37
2019-03-17T02:54:41.516Z,3.77
2019-03-17T02:57:10.003Z,4.27
2019-03-17T02:59:38.262Z,5.00
2019-03-17T03:02:06.506Z,3.83
2019-03-17T03:04:35.003Z,3.90
2019-03-17T03:07:03.109Z,4.07
2019-03-17T03:09:31.701Z,4.00
2019-03-17T03:12:00.099Z,4.10
2019-03-17T03:14:28.598Z,4.33
2019-03-17T03:16:57.218Z,4.03
2019-03-17T03:19:25.455Z,4.63
2019-03-17T03:21:53.602Z,4.50
2019-03-17T03:24:21.746Z,4.10
2019-03-17T03:26:50.529Z,4.07
2019-03-17T03:29:18.657Z,4.30
2019-03-17T03:31:47.082Z,4.33
2019-03-17T03:34:15.486Z,3.77
2019-03-17T03:36:43.909Z,3.50
2019-03-17T03:39:12.983Z,3.90
2019-03-17T03:41:41.530Z,4.50
2019-03-17T03:44:09.903Z,4.10
2019-03-17T03:46:38.300Z,4.07
2019-03-17T03:49:07.183Z,4.27
2019-03-17T03:51:35.442Z,4.67
2019-03-17T03:54:03.562Z,5.07
2019-03-17T03:56:32.200Z,4.57
2019-03-17T03:59:00.943Z,4.23
2019-03-17T04:01:29.745Z,4.67
2019-03-17T04:03:57.997Z,4.90
2019-03-17T04:06:27.226Z,4.70
2019-03-17T04:08:56.027Z,5.67
2019-03-17T04:11:24.928Z,4.73
2019-03-17T04:13:52.589Z,4.90
2019-03-17T04:16:20.805Z,4.60
2019-03-17T04:18:49.586Z,5.07
2019-03-17T04:21:17.930Z,4.70
2019-03-17T04:23:46.316Z,5.10
2019-03-17T04:26:14.965Z,4.50
2019-03-17T04:28:43.130Z,4.57
2019-03-17T04:31:14.524Z,4.50
2019-03-17T04:33:42.326Z,5.10
2019-03-17T04:36:10.634Z,4.67
2019-03-17T04:38:39.042Z,5.23
2019-03-17T04:41:07.692Z,4.17
2019-03-17T04:43:35.854Z,4.77
2019-03-17T04:46:04.105Z,4.77
2019-03-17T04:48:32.534Z,5.03
2019-03-17T04:51:00.928Z,4.20
2019-03-17T04:53:29.380Z,4.77
2019-03-17T04:55:57.778Z,4.17
2019-03-17T04:58:26.404Z,4.60
2019-03-17T05:00:54.815Z,4.23
2019-03-17T05:03:23.006Z,4.50
2019-03-17T05:05:50.908Z,5.17
2019-03-17T05:08:18.934Z,4.30
2019-03-17T05:10:47.173Z,3.90
2019-03-17T05:13:15.164Z,4.20
2019-03-17T05:15:43.077Z,4.47
2019-03-17T05:18:12.046Z,5.30
2019-03-17T05:20:40.263Z,4.13
2019-03-17T05:23:08.369Z,4.40
2019-03-17T05:25:36.261Z,5.10
2019-03-17T05:28:04.373Z,4.30
2019-03-17T05:30:32.369Z,5.63
2019-03-17T05:33:00.625Z,6.00
2019-03-17T05:35:28.523Z,6.30
2019-03-17T05:37:56.580Z,6.47
2019-03-17T05:40:24.459Z,5.10
2019-03-17T05:42:52.457Z,5.37
2019-03-17T05:45:20.341Z,5.73
2019-03-17T05:47:48.271Z,5.77
2019-03-17T05:50:16.154Z,6.70
2019-03-17T05:52:44.070Z,6.10
2019-03-17T05:55:11.958Z,5.90
2019-03-17T05:57:40.216Z,6.80
2019-03-17T06:00:09.975Z,7.53
2019-03-17T06:02:38.125Z,6.27
2019-03-17T06:05:06.962Z,7.37
2019-03-17T06:07:34.845Z,6.70
2019-03-17T06:10:02.937Z,7.10
2019-03-17T06:12:30.945Z,6.97
2019-03-17T06:14:58.913Z,6.87
2019-03-17T06:17:26.817Z,6.77
2019-03-17T06:19:54.702Z,5.80
2019-03-17T06:22:22.665Z,5.87
2019-03-17T06:24:50.825Z,5.53
2019-03-17T06:27:19.801Z,4.90
2019-03-17T06:29:47.685Z,5.20
2019-03-17T06:32:15.910Z,5.00
2019-03-17T06:34:44.314Z,5.77
2019-03-17T06:37:13.667Z,4.87
2019-03-17T06:39:41.719Z,5.33
2019-03-17T06:42:09.621Z,5.43
2019-03-17T06:44:37.541Z,5.70
2019-03-17T06:47:05.997Z,4.57
2019-03-17T06:49:34.313Z,5.13
2019-03-17T06:52:02.234Z,5.30
2019-03-17T06:54:30.137Z,5.13
2019-03-17T06:56:58.037Z,5.20
2019-03-17T06:59:25.957Z,5.43
2019-03-17T07:01:53.847Z,4.60
2019-03-17T07:04:21.854Z,5.07
2019-03-17T07:06:49.776Z,5.23
2019-03-17T07:09:17.693Z,5.30
2019-03-17T07:11:45.884Z,4.90
2019-03-17T07:14:14.041Z,5.80
2019-03-17T07:16:43.045Z,4.53
2019-03-17T07:19:11.165Z,5.07
2019-03-17T07:21:39.241Z,5.10
2019-03-17T07:24:07.150Z,5.10
2019-03-17T07:26:35.173Z,5.30
2019-03-17T07:29:03.284Z,4.40
2019-03-17T07:31:31.515Z,3.93
2019-03-17T07:33:59.432Z,5.30
2019-03-17T07:36:27.550Z,4.90
2019-03-17T07:38:55.465Z,5.47
2019-03-17T07:41:23.355Z,5.70
2019-03-17T07:43:51.261Z,5.60
2019-03-17T07:46:19.493Z,5.20
2019-03-17T07:48:48.142Z,5.57
2019-03-17T07:51:16.045Z,4.40
2019-03-17T07:53:44.053Z,4.00
2019-03-17T07:56:11.950Z,4.10
2019-03-17T07:58:39.850Z,3.20
2019-03-17T08:01:07.991Z,3.87
2019-03-17T08:03:36.189Z,2.53
2019-03-17T08:06:04.293Z,1.90
2019-03-17T08:08:32.560Z,1.90
2019-03-17T08:11:00.549Z,2.60
2019-03-17T08:13:28.465Z,3.67
2019-03-17T08:15:56.666Z,1.67
2019-03-17T08:18:24.637Z,1.80
2019-03-17T08:20:52.896Z,1.90
2019-03-17T08:23:20.789Z,2.30
2019-03-17T08:25:52.174Z,2.17
2019-03-17T08:28:19.163Z,2.30
2019-03-17T08:30:53.140Z,2.33
2019-03-17T08:33:16.201Z,2.80
2019-03-17T08:35:44.548Z,2.83
2019-03-17T08:38:21.365Z,3.70
2019-03-17T08:40:42.985Z,4.17
2019-03-17T08:43:11.033Z,5.10
2019-03-17T08:45:39.269Z,6.37
2019-03-17T08:48:07.171Z,5.90
2019-03-17T08:50:35.326Z,8.50
2019-03-17T08:53:03.422Z,7.97
2019-03-17T08:55:31.461Z,7.33
2019-03-17T08:58:00.383Z,8.27
2019-03-17T09:00:28.420Z,5.70
2019-03-17T09:02:57.844Z,5.57
2019-03-17T09:05:26.178Z,3.70
2019-03-17T09:07:54.070Z,4.20
2019-03-17T09:10:22.878Z,4.10
2019-03-17T09:12:51.490Z,3.70
2019-03-17T09:15:20.390Z,3.50
2019-03-17T09:17:48.887Z,3.37
2019-03-17T09:20:17.372Z,3.00
2019-03-17T09:22:46.436Z,3.37
2019-03-17T09:25:13.714Z,3.10
2019-03-17T09:27:42.429Z,2.87
2019-03-17T09:30:11.387Z,2.77
2019-03-17T09:32:39.981Z,2.93
2019-03-17T09:35:09.215Z,2.87
2019-03-17T09:37:37.561Z,2.87
2019-03-17T09:40:06.434Z,2.23
2019-03-17T09:42:34.838Z,2.50
2019-03-17T09:45:03.654Z,2.93
2019-03-17T09:47:31.669Z,2.40
2019-03-17T09:49:59.689Z,2.37
2019-03-17T09:52:27.941Z,2.20
2019-03-17T09:54:55.950Z,2.20
2019-03-17T09:57:24.097Z,3.00
2019-03-17T09:59:52.014Z,2.80
2019-03-17T10:02:19.980Z,2.97
2019-03-17T10:04:47.920Z,4.53
2019-03-17T10:07:15.983Z,5.73
2019-03-17T10:09:43.939Z,5.20
2019-03-17T10:12:12.042Z,5.50
2019-03-17T10:14:39.949Z,5.90
2019-03-17T10:17:07.862Z,6.30
2019-03-17T10:19:35.763Z,5.97
2019-03-17T10:22:03.712Z,6.20
2019-03-17T10:24:31.621Z,5.63
2019-03-17T10:26:59.965Z,6.10
2019-03-17T10:29:27.967Z,7.27
2019-03-17T10:31:55.982Z,7.30
2019-03-17T10:34:23.882Z,9.47
2019-03-17T10:36:51.822Z,11.13
2019-03-17T10:39:20.002Z,15.43
2019-03-17T10:41:48.161Z,11.73
2019-03-17T10:44:16.064Z,8.15
2019-03-17T10:46:43.990Z,6.85
2019-03-17T10:49:12.010Z,5.95
2019-03-17T10:51:40.039Z,7.58
2019-03-17T10:54:07.946Z,6.28
2019-03-17T10:56:35.892Z,5.37
2019-03-17T10:59:03.810Z,7.00
2019-03-17T11:01:31.722Z,6.90
2019-03-17T11:03:59.625Z,9.25
2019-03-17T11:06:27.806Z,8.90
2019-03-17T11:08:55.714Z,9.40
2019-03-17T11:11:23.881Z,11.55
2019-03-17T11:13:52.118Z,11.05
2019-03-17T11:16:20.289Z,11.78
2019-03-17T11:18:48.218Z,16.87
2019-03-17T11:21:16.672Z,11.93
2019-03-17T11:23:44.981Z,9.97
2019-03-17T11:26:13.233Z,8.53
2019-03-17T11:28:41.496Z,10.13
2019-03-17T11:31:09.917Z,8.40
2019-03-17T11:33:37.998Z,9.20
2019-03-17T11:36:06.287Z,9.00
2019-03-17T11:38:34.781Z,8.10
2019-03-17T11:41:03.369Z,8.87
2019-03-17T11:43:31.566Z,8.50
2019-03-17T11:46:00.552Z,6.60
2019-03-17T11:48:29.466Z,6.53
2019-03-17T11:50:58.649Z,5.97
2019-03-17T11:53:26.395Z,6.47
2019-03-17T11:55:53.781Z,6.90
2019-03-17T11:58:22.199Z,6.90
2019-03-17T12:00:50.461Z,6.80
2019-03-17T12:03:19.099Z,5.40
2019-03-17T12:05:50.785Z,5.90
2019-03-17T12:08:19.417Z,4.70
2019-03-17T12:10:47.446Z,4.90
2019-03-17T12:13:15.698Z,4.60
2019-03-17T12:15:47.123Z,3.57
2019-03-17T12:18:15.653Z,3.60
2019-03-17T12:20:43.684Z,3.20
2019-03-17T12:23:12.141Z,3.00
2019-03-17T12:25:40.581Z,3.17
2019-03-17T12:28:08.948Z,3.67
2019-03-17T12:30:37.596Z,2.90
2019-03-17T12:33:06.102Z,2.27
2019-03-17T12:35:34.294Z,3.20
2019-03-17T12:38:02.454Z,3.20
2019-03-17T12:40:30.610Z,3.60
2019-03-17T12:42:58.789Z,3.73
2019-03-17T12:45:27.430Z,2.93
2019-03-17T12:47:55.442Z,2.93
2019-03-17T12:50:23.841Z,2.20
2019-03-17T12:52:52.236Z,2.30
2019-03-17T12:55:20.437Z,2.30
2019-03-17T12:57:54.701Z,2.60
2019-03-17T13:00:22.791Z,1.90
2019-03-17T13:02:51.646Z,1.50
2019-03-17T13:05:20.189Z,1.23
2019-03-17T13:07:48.938Z,1.83
2019-03-17T13:10:18.349Z,1.40
2019-03-17T13:12:47.085Z,1.93
2019-03-17T13:15:15.444Z,2.40
2019-03-17T13:17:44.026Z,2.60
2019-03-17T13:20:12.573Z,2.47
2019-03-17T13:22:41.324Z,2.10
2019-03-17T13:25:08.646Z,2.80
2019-03-17T13:27:37.150Z,2.27
2019-03-17T13:30:06.768Z,1.63
2019-03-17T13:32:34.681Z,1.87
2019-03-17T13:35:02.966Z,1.80
2019-03-17T13:37:31.213Z,2.00
2019-03-17T13:39:59.470Z,2.03
2019-03-17T13:42:27.450Z,1.63
2019-03-17T13:44:55.646Z,2.23
2019-03-17T13:47:24.375Z,1.47
2019-03-17T13:49:52.911Z,1.87
2019-03-17T13:52:20.819Z,1.77
2019-03-17T13:54:49.429Z,1.50
2019-03-17T13:57:17.332Z,1.50
2019-03-17T13:59:45.706Z,1.90
2019-03-17T14:02:13.822Z,2.17
2019-03-17T14:04:42.215Z,2.40
2019-03-17T14:07:11.185Z,1.83
2019-03-17T14:09:39.886Z,2.00
2019-03-17T14:12:09.746Z,2.03
2019-03-17T14:14:37.931Z,1.70
2019-03-17T14:17:06.072Z,1.40
2019-03-17T14:19:34.534Z,1.40
2019-03-17T14:22:03.310Z,1.40
2019-03-17T14:24:31.241Z,1.77
2019-03-17T14:26:59.756Z,1.83
2019-03-17T14:29:28.111Z,1.97
2019-03-17T14:31:56.245Z,1.57
2019-03-17T14:34:24.184Z,1.50
2019-03-17T14:36:52.521Z,1.30
2019-03-17T14:39:21.151Z,1.77
2019-03-17T14:41:49.202Z,1.47
2019-03-17T14:44:19.341Z,2.37
2019-03-17T14:46:47.278Z,2.23
2019-03-17T14:49:16.093Z,2.83
2019-03-17T14:51:44.477Z,2.80
2019-03-17T14:54:12.953Z,1.97
2019-03-17T14:56:40.858Z,2.10
2019-03-17T14:59:08.774Z,2.80
2019-03-17T15:01:36.676Z,2.50
2019-03-17T15:04:04.674Z,3.17
2019-03-17T15:06:33.237Z,3.00
2019-03-17T15:09:01.182Z,3.17
2019-03-17T15:11:31.708Z,3.30
2019-03-17T15:13:59.647Z,3.20
2019-03-17T15:16:31.882Z,3.23
2019-03-17T15:19:00.241Z,3.27
2019-03-17T15:21:28.257Z,3.00
2019-03-17T15:23:56.151Z,2.97
2019-03-17T15:26:24.173Z,2.70
2019-03-17T15:28:54.643Z,2.53
2019-03-17T15:31:22.589Z,3.30
2019-03-17T15:33:50.494Z,2.60
2019-03-17T15:36:18.498Z,2.70
2019-03-17T15:38:47.995Z,2.50
2019-03-17T15:41:18.908Z,2.67
2019-03-17T15:43:45.714Z,2.50
2019-03-17T15:46:13.617Z,2.10
2019-03-17T15:48:41.597Z,2.07
2019-03-17T15:51:19.701Z,2.07
2019-03-17T15:53:39.673Z,2.37
2019-03-17T15:56:07.806Z,2.40
2019-03-17T15:58:35.813Z,2.10
2019-03-17T16:01:04.185Z,3.20
2019-03-17T16:03:32.207Z,1.90
2019-03-17T16:06:02.065Z,2.03
2019-03-17T16:08:30.140Z,3.10
2019-03-17T16:10:58.061Z,2.33
2019-03-17T16:13:25.990Z,2.40
2019-03-17T16:15:54.141Z,4.10
2019-03-17T16:18:22.066Z,3.33
2019-03-17T16:20:50.087Z,3.70
2019-03-17T16:23:18.298Z,4.33
2019-03-17T16:25:46.210Z,6.47
2019-03-17T16:28:14.113Z,7.77
2019-03-17T16:30:42.165Z,8.13
2019-03-17T16:33:10.343Z,9.40
2019-03-17T16:35:38.491Z,9.00
2019-03-17T16:38:06.686Z,9.60
2019-03-17T16:40:34.605Z,8.70
2019-03-17T16:43:03.669Z,10.13
2019-03-17T16:45:31.767Z,11.60
2019-03-17T16:47:59.871Z,13.50
2019-03-17T16:50:27.785Z,23.73
2019-03-17T16:52:55.962Z,15.90
2019-03-17T16:55:23.998Z,10.75
2019-03-17T16:57:52.029Z,6.22
2019-03-17T17:00:21.004Z,6.97
2019-03-17T17:02:49.511Z,8.03
2019-03-17T17:05:17.625Z,7.80
2019-03-17T17:07:45.986Z,10.32
2019-03-17T17:10:15.005Z,8.73
2019-03-17T17:12:43.226Z,5.75
2019-03-17T17:15:14.370Z,13.30
2019-03-17T17:17:42.830Z,19.00
2019-03-17T17:20:13.088Z,20.72
2019-03-17T17:22:41.373Z,19.48
2019-03-17T17:25:13.222Z,26.35
2019-03-17T17:27:41.204Z,19.00
2019-03-17T17:30:10.986Z,22.58
2019-03-17T17:32:39.160Z,21.87
2019-03-17T17:35:07.435Z,39.88
2019-03-17T17:37:35.433Z,24.87
2019-03-17T17:40:04.066Z,21.73
2019-03-17T17:42:32.037Z,27.42
2019-03-17T17:45:00.165Z,15.08
2019-03-17T17:47:28.405Z,16.67
2019-03-17T17:49:56.470Z,10.10
2019-03-17T17:52:24.440Z,14.20
2019-03-17T17:54:52.678Z,19.98
2019-03-17T17:57:20.864Z,10.03
2019-03-17T17:59:49.073Z,12.00
2019-03-17T18:02:22.459Z,21.23
2019-03-17T18:04:51.066Z,11.65
2019-03-17T18:07:19.490Z,10.00
2019-03-17T18:09:48.313Z,8.13
2019-03-17T18:12:21.284Z,6.12
2019-03-17T18:14:47.110Z,6.95
2019-03-17T18:17:15.626Z,7.60
2019-03-17T18:19:43.784Z,6.80
2019-03-17T18:22:12.423Z,7.42
2019-03-17T18:24:41.089Z,10.43
2019-03-17T18:27:09.400Z,9.55
2019-03-17T18:29:37.587Z,9.30
2019-03-17T18:32:05.876Z,9.13
2019-03-17T18:34:34.377Z,9.38
2019-03-17T18:37:02.541Z,10.23
2019-03-17T18:39:30.502Z,9.60
2019-03-17T18:41:59.209Z,10.35
2019-03-17T18:44:27.398Z,12.90
2019-03-17T18:46:55.564Z,12.50
2019-03-17T18:49:24.395Z,11.30
2019-03-17T18:51:52.793Z,11.50
2019-03-17T18:54:21.313Z,9.35
2019-03-17T18:56:49.751Z,9.10
2019-03-17T18:59:22.155Z,10.55
2019-03-17T19:01:51.964Z,9.35
2019-03-17T19:04:20.291Z,9.50
2019-03-17T19:06:48.354Z,10.60
2019-03-17T19:09:16.702Z,7.28
2019-03-17T19:11:45.497Z,7.10
2019-03-17T19:14:14.185Z,8.03
2019-03-17T19:16:42.378Z,7.42
2019-03-17T19:19:10.797Z,8.30
2019-03-17T19:21:39.187Z,6.85
2019-03-17T19:24:07.373Z,8.55
2019-03-17T19:26:35.646Z,6.90
2019-03-17T19:29:03.688Z,9.30
2019-03-17T19:31:32.316Z,8.43
2019-03-17T19:34:00.835Z,8.63
2019-03-17T19:36:29.041Z,8.55
2019-03-17T19:38:57.283Z,11.30
2019-03-17T19:41:25.501Z,9.05
2019-03-17T19:43:53.841Z,9.60
2019-03-17T19:46:24.273Z,12.15
2019-03-17T19:48:51.427Z,12.60
2019-03-17T19:51:22.829Z,14.07
2019-03-17T19:53:51.329Z,8.75
2019-03-17T19:56:19.737Z,13.90
2019-03-17T19:58:47.887Z,9.70
2019-03-17T20:01:16.161Z,8.35
2019-03-17T20:03:45.006Z,6.45
2019-03-17T20:06:12.988Z,7.80
2019-03-17T20:08:41.464Z,6.30
2019-03-17T20:11:09.765Z,6.97
2019-03-17T20:13:38.021Z,6.42
2019-03-17T20:16:10.444Z,6.22
2019-03-17T20:18:37.863Z,16.65
2019-03-17T20:21:05.458Z,10.68
2019-03-17T20:23:35.571Z,9.00
2019-03-17T20:26:03.909Z,9.08
2019-03-17T20:28:32.409Z,7.40
2019-03-17T20:31:00.809Z,6.80
2019-03-17T20:33:29.436Z,6.20
2019-03-17T20:35:57.847Z,6.40
2019-03-17T20:38:26.549Z,6.72
2019-03-17T20:40:54.941Z,7.78
2019-03-17T20:43:34.289Z,6.75
2019-03-17T20:45:54.128Z,6.47
2019-03-17T20:48:22.695Z,7.42
2019-03-17T20:50:50.706Z,8.55
2019-03-17T20:53:18.909Z,7.85
2019-03-17T20:55:46.886Z,7.60
2019-03-17T20:58:15.306Z,7.50
2019-03-17T21:00:43.461Z,7.40
2019-03-17T21:03:11.957Z,6.65
2019-03-17T21:05:40.114Z,7.83
2019-03-17T21:08:08.035Z,8.25
2019-03-17T21:10:36.628Z,8.00
2019-03-17T21:13:06.441Z,11.22
2019-03-17T21:15:34.490Z,8.28
2019-03-17T21:18:02.989Z,9.85
2019-03-17T21:20:31.122Z,9.28
2019-03-17T21:22:59.274Z,10.72
2019-03-17T21:25:27.697Z,9.55
2019-03-17T21:27:56.257Z,9.18
2019-03-17T21:30:24.174Z,10.48
2019-03-17T21:32:53.265Z,9.45
2019-03-17T21:35:22.031Z,11.00
2019-03-17T21:37:50.312Z,10.85
2019-03-17T21:40:18.678Z,11.38
2019-03-17T21:42:47.258Z,12.95
2019-03-17T21:45:15.436Z,13.10
2019-03-17T21:47:43.638Z,14.70
2019-03-17T21:50:13.401Z,15.55
2019-03-17T21:52:41.906Z,14.80
2019-03-17T21:55:10.475Z,11.75
2019-03-17T21:57:38.581Z,10.93
2019-03-17T22:00:08.650Z,11.85
2019-03-17T22:02:36.802Z,10.08
2019-03-17T22:05:05.035Z,10.15
2019-03-17T22:07:33.026Z,9.58
2019-03-17T22:10:00.950Z,10.93
2019-03-17T22:12:29.035Z,9.08
2019-03-17T22:14:56.969Z,9.80
2019-03-17T22:17:25.002Z,9.45
2019-03-17T22:19:52.901Z,9.45
2019-03-17T22:22:20.922Z,9.00
2019-03-17T22:24:49.359Z,8.95
2019-03-17T22:27:17.357Z,8.43
2019-03-17T22:29:45.709Z,7.50
2019-03-17T22:32:13.655Z,8.20
2019-03-17T22:34:41.685Z,8.75
2019-03-17T22:37:09.721Z,7.85
2019-03-17T22:39:37.962Z,7.75
2019-03-17T22:42:06.397Z,9.18
2019-03-17T22:44:34.789Z,9.33
2019-03-17T22:47:03.365Z,9.20
2019-03-17T22:49:31.762Z,9.53
2019-03-17T22:51:59.689Z,10.05
2019-03-17T22:54:28.111Z,10.23
2019-03-17T22:56:56.528Z,10.05
2019-03-17T22:59:34.133Z,11.93
2019-03-17T23:02:01.437Z,8.93
2019-03-17T23:04:28.602Z,8.75
2019-03-17T23:06:56.705Z,8.58
2019-03-17T23:09:25.302Z,11.20
2019-03-17T23:11:53.676Z,7.40
2019-03-17T23:14:22.645Z,9.48
2019-03-17T23:16:51.472Z,8.98
2019-03-17T23:19:19.356Z,7.90
2019-03-17T23:21:47.783Z,8.40
2019-03-17T23:24:15.672Z,7.37
2019-03-17T23:26:44.305Z,8.60
2019-03-17T23:29:12.797Z,7.78
2019-03-17T23:31:41.036Z,9.53
2019-03-17T23:34:09.286Z,9.03
2019-03-17T23:36:37.546Z,9.55
2019-03-17T23:39:06.609Z,9.35
2019-03-17T23:41:34.686Z,8.50
2019-03-17T23:44:04.917Z,11.35
2019-03-17T23:46:34.172Z,10.53
2019-03-17T23:49:02.329Z,11.05
2019-03-17T23:51:30.342Z,9.50
2019-03-17T23:53:58.865Z,10.55
2019-03-17T23:56:27.454Z,12.25
2019-03-17T23:58:55.850Z,11.12
